Time;durP1;ratioP1;P1;durP2;ratioP2;P2;SDS_P1;SDS_P2;PMS_P1;PMS_P2;Temp;Humidity;BMP_temperature;BMP_pressure;BME280_temperature;BME280_humidity;BME280_pressure;Samples;Min_cycle;Max_cycle;Signal;HPM_P1;HPM_P2
2022/07/02 00:02:16;;;;;;;13.87;9.97;;;;;;;10.43;100.00;97274.69;10412752;28;20239;-56
2022/07/02 00:07:17;;;;;;;14.20;10.83;;;;;;;10.47;100.00;97273.44;10412795;28;20623;-56
2022/07/02 00:12:17;;;;;;;14.53;9.37;;;;;;;10.57;100.00;97276.06;10411611;28;20205;-55
2022/07/02 00:17:17;;;;;;;12.80;9.33;;;;;;;10.65;100.00;97279.59;10412449;28;20690;-53
2022/07/02 00:22:19;;;;;;;13.50;9.10;;;;;;;10.54;100.00;97279.78;10413468;28;20601;-53
2022/07/02 00:27:20;;;;;;;11.70;8.67;;;;;;;10.66;100.00;97268.16;10411849;28;20197;-53
2022/07/02 00:32:20;;;;;;;9.95;7.32;;;;;;;10.65;100.00;97273.53;10393885;28;20216;-54
2022/07/02 00:37:21;;;;;;;12.07;8.32;;;;;;;10.63;100.00;97273.69;10411616;28;20258;-57
2022/07/02 00:42:25;;;;;;;9.33;6.87;;;;;;;10.64;100.00;97277.13;10411710;28;20290;-52
2022/07/02 00:47:25;;;;;;;11.13;7.10;;;;;;;10.55;100.00;97275.38;10411646;28;20605;-55
2022/07/02 00:52:26;;;;;;;8.60;7.40;;;;;;;10.54;100.00;97277.16;10411501;28;20209;-53
2022/07/02 00:57:26;;;;;;;10.30;7.37;;;;;;;10.52;100.00;97276.47;10411747;28;20203;-52
2022/07/02 01:02:27;;;;;;;9.20;7.20;;;;;;;10.46;100.00;97288.34;10410907;28;20242;-51
2022/07/02 01:07:29;;;;;;;13.30;7.27;;;;;;;10.42;100.00;97286.16;10411195;28;20192;-52
2022/07/02 01:12:29;;;;;;;11.07;6.67;;;;;;;10.29;100.00;97278.56;10411115;28;20240;-54
2022/07/02 01:17:30;;;;;;;8.77;6.43;;;;;;;10.06;100.00;97278.03;10410927;28;20648;-52
2022/07/02 01:22:34;;;;;;;9.20;6.27;;;;;;;10.04;100.00;97282.59;10415326;28;20630;-51
2022/07/02 01:27:34;;;;;;;11.30;6.40;;;;;;;9.93;100.00;97275.72;10419042;28;20223;-51
2022/07/02 01:32:35;;;;;;;8.33;7.17;;;;;;;9.93;100.00;97287.00;10418276;28;20645;-51
2022/07/02 01:37:39;;;;;;;12.03;6.80;;;;;;;9.88;100.00;97302.31;10418468;28;20663;-52
2022/07/02 01:42:39;;;;;;;7.67;6.40;;;;;;;9.87;100.00;97298.03;10418419;28;20216;-52
2022/07/02 01:47:39;;;;;;;8.60;6.50;;;;;;;9.96;100.00;97297.19;10418362;28;20275;-56
2022/07/02 01:52:40;;;;;;;7.73;6.53;;;;;;;9.98;100.00;97294.44;10417812;28;20644;-52
2022/07/02 01:57:40;;;;;;;6.57;5.87;;;;;;;9.87;100.00;97289.34;10418150;28;20562;-52
2022/07/02 02:02:40;;;;;;;7.00;5.10;;;;;;;9.81;100.00;97303.81;10417332;28;20779;-52
2022/07/02 02:07:41;;;;;;;9.43;5.60;;;;;;;9.73;100.00;97307.09;10417499;28;20667;-52
2022/07/02 02:12:41;;;;;;;5.83;5.23;;;;;;;9.81;100.00;97304.63;10417444;28;20326;-51
2022/07/02 02:17:41;;;;;;;8.03;5.50;;;;;;;9.77;100.00;97318.97;10416799;28;20192;-52
2022/07/02 02:22:42;;;;;;;6.00;4.70;;;;;;;9.76;100.00;97314.69;10416950;28;20252;-52
2022/07/02 02:27:42;;;;;;;6.87;5.00;;;;;;;9.74;100.00;97315.75;10416312;28;20251;-53
2022/07/02 02:32:42;;;;;;;7.93;5.30;;;;;;;9.65;100.00;97327.91;10415230;28;20200;-52
2022/07/02 02:37:43;;;;;;;8.67;5.40;;;;;;;9.73;100.00;97332.44;10416238;28;20255;-52
2022/07/02 02:42:43;;;;;;;5.60;4.80;;;;;;;9.67;100.00;97340.84;10415848;28;20224;-52
2022/07/02 02:47:44;;;;;;;5.40;4.47;;;;;;;9.63;100.00;97329.81;10416168;28;20231;-53
2022/07/02 02:52:44;;;;;;;10.27;5.30;;;;;;;9.61;100.00;97337.78;10415531;28;20208;-53
2022/07/02 02:57:44;;;;;;;6.10;4.87;;;;;;;9.70;100.00;97343.19;10415784;28;20196;-52
2022/07/02 03:02:45;;;;;;;9.57;5.37;;;;;;;9.71;100.00;97342.19;10444373;22;20378;-60
2022/07/02 03:07:45;;;;;;;4.77;3.90;;;;;;;9.78;100.00;97351.16;10413739;28;20196;-60
2022/07/02 03:12:45;;;;;;;5.87;4.63;;;;;;;9.71;100.00;97360.53;10415071;28;20258;-61
2022/07/02 03:17:46;;;;;;;7.30;4.73;;;;;;;9.76;100.00;97363.56;10414590;28;20197;-57
2022/07/02 03:22:46;;;;;;;6.80;4.87;;;;;;;9.78;100.00;97359.84;10414706;28;20223;-58
2022/07/02 03:27:46;;;;;;;9.43;4.80;;;;;;;9.82;100.00;97363.03;10414524;28;20249;-57
2022/07/02 03:32:47;;;;;;;6.07;4.50;;;;;;;9.86;100.00;97371.44;10413732;28;20212;-58
2022/07/02 03:37:47;;;;;;;4.60;4.03;;;;;;;9.94;100.00;97377.66;10413892;28;20200;-59
2022/07/02 03:42:47;;;;;;;7.10;4.40;;;;;;;9.96;100.00;97370.47;10414362;28;20220;-60
2022/07/02 03:47:48;;;;;;;8.60;4.17;;;;;;;9.97;100.00;97381.78;10414232;28;20209;-60
2022/07/02 03:52:48;;;;;;;4.20;3.80;;;;;;;9.96;100.00;97391.41;10413559;28;20223;-61
2022/07/02 03:57:49;;;;;;;5.80;3.93;;;;;;;10.19;100.00;97388.56;10412869;28;20201;-62
2022/07/02 04:02:49;;;;;;;4.13;3.73;;;;;;;10.29;100.00;97394.63;10412881;28;20236;-61
2022/07/02 04:07:49;;;;;;;6.53;3.87;;;;;;;10.50;100.00;97391.06;10412993;28;20227;-62
2022/07/02 04:12:50;;;;;;;5.40;3.77;;;;;;;10.66;100.00;97386.06;10414966;28;20210;-62
2022/07/02 04:17:50;;;;;;;3.90;3.50;;;;;;;10.83;100.00;97395.00;10412693;28;20189;-62
2022/07/02 04:22:50;;;;;;;4.80;3.50;;;;;;;11.01;100.00;97387.25;10412234;28;20311;-62
2022/07/02 04:27:51;;;;;;;5.93;3.90;;;;;;;11.18;100.00;97390.06;10412411;28;20254;-62
2022/07/02 04:32:51;;;;;;;4.85;3.60;;;;;;;11.34;100.00;97398.16;10411588;28;20216;-62
2022/07/02 04:37:51;;;;;;;3.75;3.08;;;;;;;11.52;100.00;97400.03;10412062;28;20540;-61
2022/07/02 04:42:52;;;;;;;5.37;2.87;;;;;;;11.66;100.00;97404.78;10411938;28;20733;-62
2022/07/02 04:47:52;;;;;;;6.30;3.00;;;;;;;11.76;100.00;97396.84;10411539;28;20678;-62
2022/07/02 04:52:52;;;;;;;3.33;3.03;;;;;;;11.99;100.00;97402.56;10411918;28;20713;-61
2022/07/02 04:57:53;;;;;;;4.70;2.40;;;;;;;12.18;100.00;97398.16;10410883;28;20886;-61
2022/07/02 05:02:53;;;;;;;3.75;2.60;;;;;;;12.31;100.00;97402.06;10411387;28;20726;-61
2022/07/02 05:07:54;;;;;;;6.07;2.40;;;;;;;12.51;100.00;97407.16;10409821;28;20280;-62
2022/07/02 05:12:54;;;;;;;3.28;2.30;;;;;;;12.73;100.00;97403.22;10411221;28;20212;-61
2022/07/02 05:17:54;;;;;;;3.47;2.40;;;;;;;13.08;100.00;97406.75;10411280;28;20226;-61
2022/07/02 05:22:55;;;;;;;2.70;1.85;;;;;;;13.39;100.00;97411.56;10410774;28;20232;-61
2022/07/02 05:27:55;;;;;;;5.32;2.20;;;;;;;13.60;100.00;97415.59;10411091;28;20210;-60
2022/07/02 05:32:55;;;;;;;2.90;1.85;;;;;;;13.82;100.00;97428.19;10410446;28;20228;-59
2022/07/02 05:37:56;;;;;;;2.60;1.70;;;;;;;14.03;100.00;97419.03;10411020;28;20189;-60
2022/07/02 05:42:56;;;;;;;3.40;1.70;;;;;;;14.32;100.00;97429.16;10417974;28;20286;-60
2022/07/02 05:47:57;;;;;;;1.80;1.70;;;;;;;14.65;100.00;97429.19;10410485;28;20286;-58
2022/07/02 05:52:57;;;;;;;7.25;2.35;;;;;;;14.91;100.00;97413.19;10410732;28;20211;-61
2022/07/02 05:57:57;;;;;;;3.47;1.52;;;;;;;15.31;100.00;97414.13;10410419;28;20185;-60
2022/07/02 06:02:58;;;;;;;7.13;1.90;;;;;;;15.56;100.00;97424.63;10410072;28;20727;-61
2022/07/02 06:07:58;;;;;;;2.55;2.00;;;;;;;15.69;100.00;97424.06;10411833;28;20200;-61
2022/07/02 06:12:58;;;;;;;4.88;1.88;;;;;;;15.75;100.00;97428.66;10417335;28;20212;-60
2022/07/02 06:18:00;;;;;;;2.33;1.70;;;;;;;15.99;100.00;97430.41;10417266;28;20566;-62
2022/07/02 06:23:00;;;;;;;6.15;2.20;;;;;;;15.70;100.00;97437.09;10417094;28;20220;-62
2022/07/02 06:28:01;;;;;;;2.08;1.88;;;;;;;15.94;100.00;97435.38;10416792;28;20265;-62
2022/07/02 06:33:01;;;;;;;6.53;1.90;;;;;;;17.01;94.59;97412.66;10416331;28;20204;-62
2022/07/02 06:38:01;;;;;;;6.05;2.15;;;;;;;17.37;92.84;97407.50;10416774;28;20194;-63
2022/07/02 06:43:02;;;;;;;2.80;1.73;;;;;;;17.07;91.22;97431.28;10416456;28;20259;-64
2022/07/02 06:48:03;;;;;;;2.45;2.00;;;;;;;17.89;86.51;97402.28;10416178;28;20561;-64
2022/07/02 06:53:03;;;;;;;4.03;1.63;;;;;;;19.38;81.31;97364.38;10415693;28;20585;-62
2022/07/02 06:58:03;;;;;;;5.82;1.40;;;;;;;19.64;80.58;97384.16;10415950;28;20283;-63
2022/07/02 07:03:04;;;;;;;3.70;1.50;;;;;;;21.79;67.59;97287.22;10415072;28;20244;-62
2022/07/02 07:08:04;;;;;;;1.70;1.02;;;;;;;22.85;63.56;97268.75;10415536;28;20205;-61
2022/07/02 07:13:05;;;;;;;3.50;1.10;;;;;;;23.47;61.79;97264.16;10414976;28;20212;-62
2022/07/02 07:18:05;;;;;;;1.67;1.10;;;;;;;23.91;60.34;97273.91;10414393;28;20219;-62
2022/07/02 07:23:05;;;;;;;1.37;1.03;;;;;;;25.92;52.86;97191.34;10414930;28;20510;-63
2022/07/02 07:28:06;;;;;;;2.93;1.43;;;;;;;24.13;53.70;97170.59;10414217;28;20448;-62
2022/07/02 07:33:06;;;;;;;6.07;2.03;;;;;;;25.21;49.53;97118.47;10414252;28;20528;-59
2022/07/02 07:38:06;;;;;;;3.23;1.17;;;;;;;24.42;52.89;97194.00;10414077;28;20868;-62
2022/07/02 07:43:07;;;;;;;1.87;1.43;;;;;;;22.92;53.44;97159.97;10413808;28;20856;-58
2022/07/02 07:48:07;;;;;;;4.93;1.50;;;;;;;24.99;49.37;97137.09;10413917;28;20792;-58
2022/07/02 07:53:07;;;;;;;5.60;1.73;;;;;;;22.17;52.60;97120.91;10413279;28;21072;-59
2022/07/02 07:58:08;;;;;;;2.90;1.53;;;;;;;24.20;51.31;97171.31;10413538;28;20983;-60
2022/07/02 08:03:09;;;;;;;2.97;1.60;;;;;;;23.88;49.68;97119.16;10412813;28;20993;-58
2022/07/02 08:08:09;;;;;;;3.30;1.48;;;;;;;23.15;55.32;97237.63;10413055;28;20184;-61
2022/07/02 08:13:10;;;;;;;3.10;1.40;;;;;;;23.61;54.02;97234.56;10412742;28;20215;-62
2022/07/02 08:18:10;;;;;;;1.97;1.10;;;;;;;25.12;49.44;97163.63;10412503;28;20443;-61
2022/07/02 08:23:11;;;;;;;4.85;1.65;;;;;;;24.95;48.58;97143.97;10412793;28;20518;-61
2022/07/02 08:28:11;;;;;;;2.90;1.70;;;;;;;22.59;52.08;97158.50;10412267;28;20604;-61
2022/07/02 08:33:14;;;;;;;3.35;1.60;;;;;;;21.43;55.89;97227.31;10411041;28;21088;-58
2022/07/02 08:38:14;;;;;;;4.25;1.75;;;;;;;21.26;54.50;97187.00;10412051;28;20279;-60
2022/07/02 08:43:15;;;;;;;2.33;1.55;;;;;;;23.49;48.89;97125.72;10411821;28;20659;-59
2022/07/02 08:48:15;;;;;;;3.03;1.95;;;;;;;25.39;49.28;97204.13;10412061;28;20758;-61
2022/07/02 08:53:17;;;;;;;2.17;1.40;;;;;;;24.78;46.60;97091.13;10410423;28;20211;-59
2022/07/02 08:58:17;;;;;;;2.45;1.27;;;;;;;25.37;44.34;97065.94;10411652;28;20207;-59
2022/07/02 09:03:19;;;;;;;3.05;1.20;;;;;;;24.70;46.60;97099.53;10432269;22;20710;-59
2022/07/02 09:08:22;;;;;;;2.65;1.20;;;;;;;25.16;44.35;97062.06;10411331;28;20203;-61
2022/07/02 09:13:23;;;;;;;1.98;0.98;;;;;;;26.61;41.18;97014.78;10411240;28;20213;-60
2022/07/02 09:18:23;;;;;;;1.25;0.95;;;;;;;25.35;41.57;96990.28;10410863;28;20262;-62
2022/07/02 09:23:24;;;;;;;2.28;1.25;;;;;;;24.55;42.66;96985.66;10411202;28;20231;-61
2022/07/02 09:28:24;;;;;;;2.13;1.25;;;;;;;23.98;46.03;97071.22;10410936;28;20216;-59
2022/07/02 09:33:35;;;;;;;3.20;1.00;;;;;;;24.65;43.48;97011.03;10410568;28;20212;-61
2022/07/02 09:38:46;;;;;;;1.88;0.90;;;;;;;24.69;43.09;97009.50;10410896;28;20868;-60
2022/07/02 09:43:56;;;;;;;4.28;1.25;;;;;;;25.79;45.67;97144.19;10414939;28;20216;-62
2022/07/02 09:49:06;;;;;;;2.95;1.10;;;;;;;25.83;45.45;97127.59;10418558;28;20234;-62
2022/07/02 09:54:08;;;;;;;1.50;1.10;;;;;;;26.59;40.87;97012.34;10418068;28;20204;-62
2022/07/02 09:59:13;;;;;;;2.55;1.80;;;;;;;26.11;40.03;96974.47;10418283;28;20263;-61
2022/07/02 10:04:16;;;;;;;4.38;1.13;;;;;;;22.26;44.74;96954.13;10417037;28;20624;-62
2022/07/02 10:09:17;;;;;;;6.05;1.20;;;;;;;23.61;43.90;96994.66;10416901;28;20188;-58
2022/07/02 10:14:21;;;;;;;3.28;0.90;;;;;;;24.92;42.17;97009.38;10416355;28;20212;-62
2022/07/02 10:19:22;;;;;;;7.78;1.02;;;;;;;24.92;44.23;97059.50;10416073;28;20199;-59
2022/07/02 10:24:23;;;;;;;2.85;1.08;;;;;;;22.92;46.81;97064.59;10417669;28;20648;-61
2022/07/02 10:29:24;;;;;;;5.20;1.13;;;;;;;22.34;47.96;97071.28;10418179;28;20228;-61
2022/07/02 10:35:05;;;;;;;2.33;1.10;;;;;;;22.63;46.33;97042.19;10416953;28;20288;-63
2022/07/02 10:40:06;;;;;;;4.55;1.60;;;;;;;24.24;43.47;97010.19;10417394;28;20219;-63
2022/07/02 10:45:11;;;;;;;2.33;0.85;;;;;;;25.87;41.93;97037.47;10416946;28;20761;-62
2022/07/02 10:50:11;;;;;;;3.80;1.00;;;;;;;23.77;43.51;96974.41;10415860;28;20201;-63
2022/07/02 10:55:11;;;;;;;2.30;0.90;;;;;;;23.20;46.02;97044.50;10415693;28;20698;-61
2022/07/02 11:00:15;;;;;;;2.05;0.80;;;;;;;25.32;42.49;97025.63;10415945;28;20207;-59
2022/07/02 11:05:15;;;;;;;4.03;0.70;;;;;;;27.11;39.37;96999.44;10414683;28;20228;-62
2022/07/02 11:10:26;;;;;;;3.87;1.10;;;;;;;24.52;43.95;97007.56;10415508;28;20219;-62
2022/07/02 11:15:35;;;;;;;1.58;0.90;;;;;;;25.35;41.44;96990.28;10415186;28;20527;-61
2022/07/02 11:20:35;;;;;;;1.38;0.90;;;;;;;24.72;42.89;96996.44;10415122;28;20238;-62
2022/07/02 11:25:36;;;;;;;0.98;0.65;;;;;;;27.97;38.71;96998.47;10414587;28;20639;-60
2022/07/02 11:30:36;;;;;;;1.57;0.80;;;;;;;24.77;41.59;96955.53;10413994;28;20267;-58
2022/07/02 11:35:36;;;;;;;1.65;0.80;;;;;;;27.61;35.83;96879.00;10414400;28;20442;-60
2022/07/02 11:40:37;;;;;;;0.95;0.80;;;;;;;26.37;39.54;96941.69;10413975;28;20702;-59
2022/07/02 11:45:44;;;;;;;1.40;0.70;;;;;;;27.82;38.05;96964.16;10414113;28;20574;-61
2022/07/02 11:50:44;;;;;;;1.42;0.70;;;;;;;26.46;37.35;96865.78;10413584;28;20222;-61
2022/07/02 11:55:45;;;;;;;0.83;0.83;;;;;;;28.71;35.77;96933.78;10413579;28;20640;-61
2022/07/02 12:00:45;;;;;;;1.23;0.80;;;;;;;29.38;35.08;96931.91;10412917;28;20842;-60
2022/07/02 12:05:50;;;;;;;2.22;0.90;;;;;;;28.68;37.09;96964.78;10413131;28;20221;-58
2022/07/02 12:10:50;;;;;;;1.90;0.70;;;;;;;29.37;36.43;96956.47;10413118;28;20739;-65
2022/07/02 12:15:51;;;;;;;1.80;0.70;;;;;;;30.57;35.64;96970.19;10413020;28;20219;-61
2022/07/02 12:20:51;;;;;;;0.97;0.67;;;;;;;30.99;33.99;96938.25;10412860;28;20459;-61
2022/07/02 12:25:51;;;;;;;0.90;0.80;;;;;;;30.14;32.43;96830.09;10412505;28;20483;-62
2022/07/02 12:30:53;;;;;;;3.33;0.60;;;;;;;30.19;35.93;96946.25;10412005;28;20498;-62
2022/07/02 12:36:00;;;;;;;3.08;1.10;;;;;;;29.74;35.77;96920.22;10412028;28;20258;-61
2022/07/02 12:41:01;;;;;;;1.63;0.75;;;;;;;29.07;36.29;96926.53;10411914;28;20303;-61
2022/07/02 12:46:04;;;;;;;1.20;0.70;;;;;;;27.94;35.93;96862.44;10411682;28;20298;-62
2022/07/02 12:51:09;;;;;;;2.75;1.00;;;;;;;27.72;36.64;96876.09;10411636;28;20244;-63
2022/07/02 12:56:10;;;;;;;0.77;0.77;;;;;;;27.79;39.54;96961.19;10411675;28;20239;-63
2022/07/02 13:01:11;;;;;;;3.40;0.70;;;;;;;27.98;39.14;96957.00;10411175;28;20717;-62
2022/07/02 13:06:11;;;;;;;1.03;0.80;;;;;;;29.57;36.05;96925.94;10411657;28;20220;-62
2022/07/02 13:11:11;;;;;;;2.40;0.97;;;;;;;28.17;35.40;96841.50;10411440;28;20470;-61
2022/07/02 13:16:12;;;;;;;2.97;0.90;;;;;;;29.30;35.47;96870.41;10411508;28;20458;-60
2022/07/02 13:21:12;;;;;;;2.37;0.87;;;;;;;29.73;36.05;96905.13;10419498;28;20466;-56
2022/07/02 13:26:12;;;;;;;3.33;0.90;;;;;;;32.01;33.81;96939.97;10419132;28;20474;-59
2022/07/02 13:31:13;;;;;;;1.00;0.80;;;;;;;32.26;32.43;96877.59;10418684;28;20455;-59
2022/07/02 13:36:13;;;;;;;1.95;0.73;;;;;;;33.86;29.49;96824.88;10418939;28;20431;-58
2022/07/02 13:41:14;;;;;;;3.17;0.80;;;;;;;33.49;30.01;96834.84;10418703;28;20216;-58
2022/07/02 13:46:14;;;;;;;0.93;0.70;;;;;;;32.26;29.48;96731.19;10418346;28;20527;-54
2022/07/02 13:51:14;;;;;;;3.22;0.68;;;;;;;31.89;30.61;96770.78;10418089;28;20470;-56
2022/07/02 13:56:15;;;;;;;2.38;0.77;;;;;;;30.84;31.98;96769.53;10418067;28;20185;-56
2022/07/02 14:01:15;;;;;;;0.87;0.60;;;;;;;32.03;32.19;96825.84;10417736;28;20255;-60
2022/07/02 14:06:15;;;;;;;1.60;0.57;;;;;;;34.21;29.40;96811.59;10417315;28;20478;-61
2022/07/02 14:11:16;;;;;;;1.80;0.80;;;;;;;31.78;31.05;96780.94;10417501;28;20454;-59
2022/07/02 14:16:17;;;;;;;1.75;0.60;;;;;;;35.19;28.08;96817.34;10417356;28;20438;-61
2022/07/02 14:21:18;;;;;;;2.75;0.70;;;;;;;35.97;26.52;96781.34;10417277;28;20231;-60
2022/07/02 14:26:18;;;;;;;1.15;0.70;;;;;;;37.89;24.54;96769.06;10417029;28;20212;-61
2022/07/02 14:31:18;;;;;;;0.88;0.63;;;;;;;34.93;27.15;96700.19;10415122;28;20208;-58
2022/07/02 14:36:19;;;;;;;2.33;0.50;;;;;;;35.85;26.77;96737.56;10416775;28;20199;-61
2022/07/02 14:41:31;;;;;;;1.57;0.77;;;;;;;33.05;29.13;96693.16;10416315;28;20591;-59
2022/07/02 14:46:32;;;;;;;2.70;0.60;;;;;;;35.11;28.24;96769.91;10416323;28;20851;-59
2022/07/02 14:51:33;;;;;;;2.70;0.63;;;;;;;37.11;26.15;96786.69;10415901;28;20211;-60
2022/07/02 14:56:34;;;;;;;1.90;0.90;;;;;;;34.85;28.91;96745.31;10414738;28;20188;-61
2022/07/02 15:01:35;;;;;;;0.73;0.63;;;;;;;30.82;32.58;96711.41;10446269;22;20228;-61
2022/07/02 15:06:36;;;;;;;1.45;0.93;;;;;;;27.48;37.76;96783.41;10415336;28;20224;-60
2022/07/02 15:11:36;;;;;;;3.17;0.82;;;;;;;27.02;38.92;96811.66;10416728;28;20327;-63
2022/07/02 15:16:37;;;;;;;1.60;0.95;;;;;;;27.80;37.29;96783.25;10415027;28;20193;-63
2022/07/02 15:21:43;;;;;;;1.58;1.05;;;;;;;29.52;34.41;96753.97;10414953;28;20213;-62
2022/07/02 15:26:45;;;;;;;3.22;1.13;;;;;;;28.93;37.33;96833.72;10414624;28;20715;-60
2022/07/02 15:31:46;;;;;;;1.60;1.00;;;;;;;29.88;34.36;96781.63;10414136;28;20299;-62
2022/07/02 15:36:48;;;;;;;0.87;0.87;;;;;;;30.85;32.98;96754.91;10414419;28;20322;-62
2022/07/02 15:41:49;;;;;;;3.75;1.00;;;;;;;27.86;37.86;96784.06;10413673;28;20516;-62
2022/07/02 15:46:50;;;;;;;2.88;0.85;;;;;;;29.06;36.51;96808.91;10413887;28;20324;-61
2022/07/02 15:51:51;;;;;;;2.90;1.00;;;;;;;27.19;38.57;96795.34;10413713;28;20208;-60
2022/07/02 15:56:54;;;;;;;1.60;1.20;;;;;;;26.28;39.97;96794.44;10412475;28;20212;-58
2022/07/02 16:01:55;;;;;;;2.67;1.10;;;;;;;26.17;40.28;96815.03;10411980;28;20299;-58
2022/07/02 16:06:56;;;;;;;3.53;1.00;;;;;;;25.13;43.34;96866.81;10413137;28;20231;-58
2022/07/02 16:11:58;;;;;;;1.48;1.23;;;;;;;24.01;45.57;96891.44;10413057;28;20212;-61
2022/07/02 16:16:58;;;;;;;1.65;1.17;;;;;;;23.62;47.40;96923.28;10412651;28;20189;-58
2022/07/02 16:21:58;;;;;;;3.33;1.33;;;;;;;23.65;45.90;96891.50;10412630;28;20224;-59
2022/07/02 16:26:59;;;;;;;1.85;1.13;;;;;;;23.36;47.82;96936.06;10412268;28;20211;-61
2022/07/02 16:32:00;;;;;;;2.75;1.10;;;;;;;23.18;47.04;96914.81;10410084;28;20216;-60
2022/07/02 16:37:08;;;;;;;1.98;1.20;;;;;;;23.79;47.34;96944.75;10411043;28;20195;-59
2022/07/02 16:42:09;;;;;;;1.63;1.08;;;;;;;24.79;45.41;96923.94;10411826;28;20208;-60
2022/07/02 16:47:14;;;;;;;1.20;1.10;;;;;;;24.93;45.79;96937.81;10412037;28;20722;-61
2022/07/02 16:52:16;;;;;;;1.33;1.17;;;;;;;24.00;47.03;96927.31;10409892;28;20208;-61
2022/07/02 16:57:16;;;;;;;2.95;1.13;;;;;;;23.75;49.09;96954.28;10411517;28;20189;-61
2022/07/02 17:02:19;;;;;;;1.73;1.10;;;;;;;24.01;47.28;96919.03;10411456;28;20711;-60
2022/07/02 17:07:19;;;;;;;2.00;1.20;;;;;;;23.14;48.32;96917.94;10411163;28;20335;-58
2022/07/02 17:12:20;;;;;;;1.30;1.20;;;;;;;23.00;48.47;96910.34;10411544;28;20212;-59
2022/07/02 17:17:20;;;;;;;2.38;1.30;;;;;;;23.27;49.34;96927.56;10411125;28;20192;-61
2022/07/02 17:22:21;;;;;;;1.30;1.20;;;;;;;22.45;49.28;96914.88;10411032;28;20215;-61
2022/07/02 17:27:21;;;;;;;1.92;1.42;;;;;;;22.43;50.14;96928.47;10411168;28;20216;-61
2022/07/02 17:32:21;;;;;;;1.58;1.35;;;;;;;22.38;51.08;96938.19;10411170;28;20212;-60
2022/07/02 17:37:22;;;;;;;1.75;1.30;;;;;;;22.24;50.74;96929.50;10411038;28;20227;-60
2022/07/02 17:42:22;;;;;;;1.63;1.40;;;;;;;21.72;51.71;96935.28;10410659;28;20208;-56
2022/07/02 17:47:22;;;;;;;1.40;1.08;;;;;;;21.68;52.50;96953.53;10410797;28;20192;-59
2022/07/02 17:52:23;;;;;;;4.28;1.42;;;;;;;21.73;51.42;96935.03;10410609;28;20209;-57
2022/07/02 17:57:23;;;;;;;1.50;1.30;;;;;;;21.66;51.42;96920.16;10410278;28;20529;-59
2022/07/02 18:02:24;;;;;;;1.63;1.20;;;;;;;21.25;52.77;96941.03;10410806;28;20236;-57
2022/07/02 18:07:24;;;;;;;1.90;1.42;;;;;;;21.07;52.24;96915.19;10417743;28;20347;-56
2022/07/02 18:12:24;;;;;;;3.17;1.40;;;;;;;21.16;53.08;96953.00;10417781;28;20293;-57
2022/07/02 18:17:25;;;;;;;2.17;1.50;;;;;;;20.99;54.67;96988.16;10417573;28;20188;-56
2022/07/02 18:22:25;;;;;;;3.38;1.50;;;;;;;20.59;56.11;96998.22;10417258;28;20213;-59
2022/07/02 18:27:26;;;;;;;2.47;1.70;;;;;;;20.37;56.75;97006.53;10417208;28;20201;-60
2022/07/02 18:32:26;;;;;;;2.75;1.65;;;;;;;20.33;56.50;96983.22;10416607;28;20608;-60
2022/07/02 18:37:27;;;;;;;1.95;1.73;;;;;;;20.13;57.72;97010.69;10416577;28;20196;-61
2022/07/02 18:42:28;;;;;;;2.33;1.67;;;;;;;19.62;60.50;97044.13;10416662;28;20236;-59
2022/07/02 18:47:28;;;;;;;2.88;1.55;;;;;;;19.07;63.10;97074.34;10414889;28;20200;-60
2022/07/02 18:52:29;;;;;;;4.13;2.03;;;;;;;18.80;65.03;97097.31;10416143;28;20587;-60
2022/07/02 18:57:29;;;;;;;2.80;1.75;;;;;;;18.56;65.86;97084.56;10415952;28;20566;-60
2022/07/02 19:02:30;;;;;;;2.92;1.60;;;;;;;18.29;68.25;97095.06;10415514;28;20719;-56
2022/07/02 19:07:30;;;;;;;1.90;1.70;;;;;;;17.95;71.85;97112.59;10415955;28;20250;-59
2022/07/02 19:12:30;;;;;;;9.15;2.03;;;;;;;17.80;73.02;97083.50;10415085;28;20287;-58
2022/07/02 19:17:31;;;;;;;7.00;2.10;;;;;;;17.37;74.96;97092.34;10413434;28;20339;-58
2022/07/02 19:22:31;;;;;;;2.67;2.08;;;;;;;17.15;77.73;97088.88;10414937;28;20216;-56
2022/07/02 19:32:53;;;;;;;4.45;2.67;;;;;;;16.57;81.63;97102.06;10414371;28;20212;-57
2022/07/02 19:37:54;;;;;;;2.60;2.40;;;;;;;16.30;85.25;97107.00;10414572;28;20318;-55
2022/07/02 19:42:54;;;;;;;4.38;2.85;;;;;;;16.02;88.04;97099.69;10414272;28;20208;-57
2022/07/02 19:47:56;;;;;;;4.07;2.85;;;;;;;15.89;88.88;97099.50;10413816;28;20243;-57
2022/07/02 19:52:57;;;;;;;2.50;2.30;;;;;;;15.75;90.89;97108.22;10414034;28;20216;-54
2022/07/02 19:57:58;;;;;;;5.55;3.10;;;;;;;15.50;93.29;97106.59;10413385;28;20662;-54
2022/07/02 20:02:58;;;;;;;3.55;3.05;;;;;;;15.51;94.44;97099.47;10413369;28;20232;-56
2022/07/02 20:07:58;;;;;;;7.88;3.50;;;;;;;15.37;95.87;97102.91;10413249;28;20193;-59
2022/07/02 20:12:59;;;;;;;6.82;3.05;;;;;;;15.26;96.41;97098.88;10412920;28;20201;-54
2022/07/02 20:17:59;;;;;;;4.72;2.47;;;;;;;15.08;98.93;97110.53;10412937;28;20188;-55
2022/07/02 20:23:00;;;;;;;9.85;3.38;;;;;;;14.81;100.00;97109.22;10412414;28;20671;-55
2022/07/02 20:28:01;;;;;;;5.72;2.90;;;;;;;14.66;100.00;97108.31;10411815;28;20195;-55
2022/07/02 20:33:01;;;;;;;3.00;2.70;;;;;;;14.51;100.00;97116.91;10412042;28;20204;-54
2022/07/02 20:38:02;;;;;;;3.22;2.60;;;;;;;14.39;100.00;97115.63;10412061;28;20277;-56
2022/07/02 20:43:02;;;;;;;3.33;2.90;;;;;;;14.28;100.00;97115.00;10412096;28;20618;-53
2022/07/02 20:48:03;;;;;;;3.05;2.85;;;;;;;14.16;100.00;97116.38;10411811;28;20188;-57
2022/07/02 20:53:03;;;;;;;3.85;3.42;;;;;;;14.02;100.00;97109.97;10411787;28;20272;-54
2022/07/02 20:58:03;;;;;;;4.80;3.63;;;;;;;13.88;100.00;97108.03;10411615;28;20199;-54
2022/07/02 21:03:04;;;;;;;5.13;3.50;;;;;;;13.71;100.00;97105.44;10432946;23;20258;-53
2022/07/02 21:08:04;;;;;;;4.15;3.63;;;;;;;13.62;100.00;97097.72;10411361;28;20228;-55
2022/07/02 21:13:05;;;;;;;4.63;4.03;;;;;;;13.36;100.00;97106.59;10411070;28;20252;-56
2022/07/02 21:18:05;;;;;;;5.55;4.00;;;;;;;13.26;100.00;97105.91;10411208;28;20278;-52
2022/07/02 21:23:06;;;;;;;9.05;4.45;;;;;;;13.10;100.00;97091.75;10411508;28;20306;-52
2022/07/02 21:28:06;;;;;;;5.72;3.97;;;;;;;13.10;100.00;97094.38;10410761;28;20273;-52
2022/07/02 21:33:06;;;;;;;5.38;3.85;;;;;;;13.08;100.00;97109.50;10410534;28;20208;-51
2022/07/02 21:38:07;;;;;;;5.70;3.72;;;;;;;12.80;100.00;97115.06;10412356;28;20194;-52
2022/07/02 21:43:07;;;;;;;7.18;3.65;;;;;;;12.73;100.00;97121.91;10418860;28;20235;-55
2022/07/02 21:48:08;;;;;;;5.05;3.85;;;;;;;12.75;100.00;97114.69;10418718;28;20534;-52
2022/07/02 21:53:08;;;;;;;5.60;3.53;;;;;;;12.71;100.00;97118.63;10417166;28;20724;-51
2022/07/02 21:58:08;;;;;;;5.78;3.90;;;;;;;12.66;100.00;97115.66;10418409;28;20550;-52
2022/07/02 22:03:09;;;;;;;3.80;3.22;;;;;;;12.62;100.00;97119.59;10417511;28;20708;-52
2022/07/02 22:08:09;;;;;;;4.53;3.55;;;;;;;12.34;100.00;97116.34;10418085;28;20682;-52
2022/07/02 22:13:10;;;;;;;6.78;3.80;;;;;;;12.28;100.00;97123.06;10417658;28;20212;-54
2022/07/02 22:18:10;;;;;;;5.20;3.33;;;;;;;12.19;100.00;97118.75;10417461;28;20196;-51
2022/07/02 22:23:11;;;;;;;5.72;3.95;;;;;;;12.13;100.00;97122.84;10417346;28;20243;-55
2022/07/02 22:28:11;;;;;;;4.22;3.63;;;;;;;12.02;100.00;97123.09;10416906;28;20636;-55
2022/07/02 22:33:12;;;;;;;4.63;3.42;;;;;;;12.02;100.00;97121.31;10416738;28;20232;-52
2022/07/02 22:38:13;;;;;;;4.75;3.42;;;;;;;11.96;100.00;97121.91;10416783;28;20235;-56
2022/07/02 22:43:14;;;;;;;5.57;3.63;;;;;;;11.85;100.00;97122.97;10416729;28;20224;-57
2022/07/02 22:48:14;;;;;;;4.43;3.97;;;;;;;11.71;100.00;97119.06;10416314;28;20677;-51
2022/07/02 22:53:15;;;;;;;4.43;3.80;;;;;;;11.65;100.00;97118.88;10415053;28;20222;-56
2022/07/02 22:58:17;;;;;;;4.40;3.30;;;;;;;11.59;100.00;97113.28;10416159;28;20196;-52
2022/07/02 23:03:17;;;;;;;6.40;3.90;;;;;;;11.55;100.00;97109.31;10415420;28;20285;-56
2022/07/02 23:08:18;;;;;;;6.07;3.87;;;;;;;11.55;100.00;97111.91;10415643;28;20698;-52
2022/07/02 23:13:18;;;;;;;5.73;3.57;;;;;;;11.55;100.00;97105.88;10414135;28;20695;-56
2022/07/02 23:18:19;;;;;;;3.80;3.47;;;;;;;11.52;100.00;97109.59;10415063;28;20201;-53